createdAt,value
2022-10-06T00:00:38.706Z,100.00
2022-10-06T00:03:05.324Z,100.00
2022-10-06T00:05:32.180Z,100.00
2022-10-06T00:08:00.285Z,100.00
2022-10-06T00:10:28.444Z,100.00
2022-10-06T00:12:55.245Z,100.00
2022-10-06T00:15:28.069Z,100.00
2022-10-06T00:17:55.562Z,100.00
2022-10-06T00:20:23.525Z,100.00
2022-10-06T00:22:50.205Z,100.00
2022-10-06T00:25:20.149Z,100.00
2022-10-06T00:27:48.895Z,100.00
2022-10-06T00:30:22.110Z,100.00
2022-10-06T00:32:54.598Z,100.00
2022-10-06T00:35:21.940Z,100.00
2022-10-06T00:37:49.060Z,100.00
2022-10-06T00:40:16.721Z,100.00
2022-10-06T00:42:59.831Z,100.00
2022-10-06T00:45:31.638Z,100.00
2022-10-06T00:48:02.606Z,100.00
2022-10-06T00:50:30.718Z,100.00
2022-10-06T00:52:57.875Z,100.00
2022-10-06T00:55:24.632Z,100.00
2022-10-06T00:57:52.898Z,100.00
2022-10-06T01:00:20.729Z,100.00
2022-10-06T01:02:57.138Z,100.00
2022-10-06T01:05:31.233Z,100.00
2022-10-06T01:07:58.796Z,100.00
2022-10-06T01:10:25.397Z,100.00
2022-10-06T01:12:52.223Z,100.00
2022-10-06T01:15:21.077Z,100.00
2022-10-06T01:18:13.332Z,100.00
2022-10-06T01:20:49.360Z,100.00
2022-10-06T01:23:16.823Z,100.00
2022-10-06T01:25:44.771Z,100.00
2022-10-06T01:28:13.214Z,100.00
2022-10-06T01:30:46.351Z,100.00
2022-10-06T01:33:12.995Z,100.00
2022-10-06T01:35:39.662Z,100.00
2022-10-06T01:38:06.272Z,100.00
2022-10-06T01:40:32.906Z,100.00
2022-10-06T01:42:59.498Z,100.00
2022-10-06T01:45:26.113Z,100.00
2022-10-06T01:47:53.084Z,100.00
2022-10-06T01:50:19.886Z,100.00
2022-10-06T01:52:46.457Z,100.00
2022-10-06T01:55:13.595Z,100.00
2022-10-06T01:57:43.890Z,100.00
2022-10-06T02:00:11.921Z,100.00
2022-10-06T02:02:38.497Z,100.00
2022-10-06T02:05:06.161Z,100.00
2022-10-06T02:07:35.550Z,100.00
2022-10-06T02:10:02.519Z,100.00
2022-10-06T02:12:31.785Z,100.00
2022-10-06T02:14:58.720Z,100.00
2022-10-06T02:17:25.344Z,100.00
2022-10-06T02:19:51.948Z,100.00
2022-10-06T02:22:18.550Z,100.00
2022-10-06T02:24:45.160Z,100.00
2022-10-06T02:27:11.827Z,100.00
2022-10-06T02:29:38.423Z,100.00
2022-10-06T02:32:05.792Z,100.00
2022-10-06T02:34:33.108Z,100.00
2022-10-06T02:36:59.749Z,100.00
2022-10-06T02:39:26.291Z,100.00
2022-10-06T02:41:52.913Z,100.00
2022-10-06T02:44:19.479Z,100.00
2022-10-06T02:46:46.143Z,100.00
2022-10-06T02:49:13.395Z,100.00
2022-10-06T02:51:39.982Z,100.00
2022-10-06T02:54:06.603Z,100.00
2022-10-06T02:56:33.209Z,100.00
2022-10-06T02:58:59.804Z,100.00
2022-10-06T03:01:28.727Z,100.00
2022-10-06T03:03:55.948Z,100.00
2022-10-06T03:06:25.173Z,100.00
2022-10-06T03:08:56.973Z,100.00
2022-10-06T03:11:26.040Z,100.00
2022-10-06T03:13:53.217Z,100.00
2022-10-06T03:16:32.094Z,100.00
2022-10-06T03:18:59.951Z,100.00
2022-10-06T03:21:33.248Z,100.00
2022-10-06T03:24:00.778Z,100.00
2022-10-06T03:26:30.577Z,100.00
2022-10-06T03:28:57.635Z,100.00
2022-10-06T03:31:25.623Z,100.00
2022-10-06T03:33:53.097Z,100.00
2022-10-06T03:36:22.499Z,100.00
2022-10-06T03:38:49.122Z,100.00
2022-10-06T03:41:21.159Z,100.00
2022-10-06T03:43:49.492Z,100.00
2022-10-06T03:46:21.803Z,100.00
2022-10-06T03:48:50.126Z,100.00
2022-10-06T03:51:22.098Z,100.00
2022-10-06T03:53:51.004Z,100.00
2022-10-06T03:56:23.624Z,100.00
2022-10-06T03:59:04.097Z,100.00
2022-10-06T04:01:36.649Z,100.00
2022-10-06T04:04:04.424Z,100.00
2022-10-06T04:06:33.592Z,100.00
2022-10-06T04:09:01.029Z,100.00
2022-10-06T04:11:33.102Z,100.00
2022-10-06T04:14:01.083Z,100.00
2022-10-06T04:16:29.910Z,100.00
2022-10-06T04:19:00.315Z,100.00
2022-10-06T04:21:28.240Z,100.00
2022-10-06T04:23:56.535Z,100.00
2022-10-06T04:26:25.329Z,100.00
2022-10-06T04:28:52.004Z,100.00
2022-10-06T04:31:24.684Z,100.00
2022-10-06T04:33:59.633Z,100.00
2022-10-06T04:36:32.243Z,100.00
2022-10-06T04:39:02.861Z,100.00
2022-10-06T04:41:32.259Z,100.00
2022-10-06T04:43:59.660Z,100.00
2022-10-06T04:46:44.529Z,100.00
2022-10-06T04:49:18.647Z,100.00
2022-10-06T04:51:46.301Z,100.00
2022-10-06T04:54:12.928Z,100.00
2022-10-06T04:56:39.513Z,100.00
2022-10-06T04:59:06.092Z,100.00
2022-10-06T05:01:35.612Z,100.00
2022-10-06T05:04:04.481Z,100.00
2022-10-06T05:06:32.831Z,100.00
2022-10-06T05:09:14.900Z,100.00
2022-10-06T05:11:41.689Z,99.78
2022-10-06T05:14:08.347Z,97.70
2022-10-06T05:16:38.085Z,98.44
2022-10-06T05:19:05.641Z,100.00
2022-10-06T05:21:33.392Z,100.00
2022-10-06T05:24:00.521Z,100.00
2022-10-06T05:26:32.178Z,100.00
2022-10-06T05:28:58.923Z,100.00
2022-10-06T05:31:31.743Z,97.29
2022-10-06T05:33:59.968Z,95.18
2022-10-06T05:36:29.790Z,97.16
2022-10-06T05:38:57.402Z,99.13
2022-10-06T05:41:28.964Z,98.24
2022-10-06T05:43:56.117Z,96.64
2022-10-06T05:46:25.433Z,98.01
2022-10-06T05:48:57.537Z,99.85
2022-10-06T05:51:30.700Z,98.02
2022-10-06T05:53:58.964Z,96.08
2022-10-06T05:56:27.889Z,96.18
2022-10-06T05:58:56.163Z,94.69
2022-10-06T06:01:31.455Z,97.27
2022-10-06T06:04:01.277Z,96.91
2022-10-06T06:06:35.860Z,97.91
2022-10-06T06:09:10.145Z,96.48
2022-10-06T06:11:39.520Z,96.78
2022-10-06T06:14:13.912Z,95.55
2022-10-06T06:16:42.180Z,94.75
2022-10-06T06:19:10.357Z,95.32
2022-10-06T06:21:37.644Z,93.51
2022-10-06T06:24:05.038Z,92.37
2022-10-06T06:26:33.820Z,91.44
2022-10-06T06:29:05.272Z,92.05
2022-10-06T06:31:37.411Z,93.53
2022-10-06T06:34:06.685Z,93.32
2022-10-06T06:36:40.948Z,92.06
2022-10-06T06:39:10.330Z,91.32
2022-10-06T06:41:39.903Z,94.50
2022-10-06T06:44:08.417Z,92.45
2022-10-06T06:49:07.793Z,91.30
2022-10-06T06:51:37.393Z,91.39
2022-10-06T06:54:04.999Z,90.70
2022-10-06T06:56:35.162Z,93.25
2022-10-06T06:59:05.749Z,92.32
2022-10-06T07:01:32.400Z,93.20
2022-10-06T07:03:59.403Z,94.37
2022-10-06T07:06:28.797Z,91.96
2022-10-06T07:08:57.679Z,93.11
2022-10-06T07:11:30.637Z,94.37
2022-10-06T07:14:05.207Z,92.46
2022-10-06T07:16:51.061Z,92.25
2022-10-06T07:19:38.080Z,94.21
2022-10-06T07:22:26.416Z,92.13
2022-10-06T07:25:08.831Z,89.44
2022-10-06T07:27:52.860Z,90.65
2022-10-06T07:30:28.760Z,90.24
2022-10-06T07:32:55.833Z,90.90
2022-10-06T07:35:23.612Z,90.37
2022-10-06T07:37:51.558Z,90.35
2022-10-06T07:40:18.587Z,89.63
2022-10-06T07:42:48.946Z,88.85
2022-10-06T07:45:36.547Z,85.66
2022-10-06T07:48:04.146Z,85.06
2022-10-06T07:50:31.058Z,83.65
2022-10-06T07:52:57.773Z,85.09
2022-10-06T07:55:24.397Z,81.62
2022-10-06T07:57:51.367Z,82.31
2022-10-06T08:00:22.396Z,82.04
2022-10-06T08:02:49.784Z,81.01
2022-10-06T08:05:16.470Z,81.97
2022-10-06T08:07:43.077Z,80.50
2022-10-06T08:10:09.915Z,80.37
2022-10-06T08:12:40.778Z,78.22
2022-10-06T08:15:09.258Z,78.26
2022-10-06T08:17:36.846Z,77.79
2022-10-06T08:20:09.451Z,76.47
2022-10-06T08:22:38.886Z,75.02
2022-10-06T08:25:07.836Z,76.05
2022-10-06T08:27:36.195Z,73.10
2022-10-06T08:30:05.968Z,73.21
2022-10-06T08:32:33.393Z,70.17
2022-10-06T08:35:00.124Z,70.72
2022-10-06T08:37:27.355Z,70.19
2022-10-06T08:39:54.827Z,68.98
2022-10-06T08:42:42.498Z,66.65
2022-10-06T08:45:15.420Z,66.87
2022-10-06T08:47:50.956Z,67.06
2022-10-06T08:50:18.137Z,67.77
2022-10-06T08:52:56.023Z,68.30
2022-10-06T08:55:45.255Z,67.61
2022-10-06T08:58:46.214Z,67.61
2022-10-06T09:01:19.630Z,67.08
2022-10-06T09:03:49.000Z,65.98
2022-10-06T09:06:18.613Z,65.92
2022-10-06T09:08:53.720Z,64.60
2022-10-06T09:11:31.650Z,65.11
2022-10-06T09:14:17.335Z,66.23
2022-10-06T09:16:50.390Z,65.17
2022-10-06T09:19:33.897Z,65.14
2022-10-06T09:22:02.445Z,65.04
2022-10-06T09:24:49.523Z,63.90
2022-10-06T09:27:23.967Z,65.26
2022-10-06T09:29:51.634Z,65.26
2022-10-06T09:32:20.802Z,64.99
2022-10-06T09:34:52.887Z,63.80
2022-10-06T09:37:19.561Z,61.96
2022-10-06T09:39:49.580Z,62.29
2022-10-06T09:42:25.367Z,63.25
2022-10-06T09:45:04.999Z,62.52
2022-10-06T09:47:47.622Z,62.82
2022-10-06T09:50:22.123Z,61.55
2022-10-06T09:52:57.952Z,61.75
2022-10-06T09:55:29.575Z,60.19
2022-10-06T09:57:57.462Z,59.78
2022-10-06T10:00:38.620Z,58.08
2022-10-06T10:03:12.364Z,59.06
2022-10-06T10:05:46.997Z,59.61
2022-10-06T10:08:13.525Z,58.51
2022-10-06T10:10:41.080Z,58.13
2022-10-06T10:13:26.461Z,58.37
2022-10-06T10:16:00.688Z,57.05
2022-10-06T10:18:30.389Z,54.43
2022-10-06T10:21:05.191Z,54.32
2022-10-06T10:23:39.291Z,56.55
2022-10-06T10:26:29.060Z,55.52
2022-10-06T10:29:33.472Z,54.10
2022-10-06T10:32:13.030Z,55.41
2022-10-06T10:34:49.980Z,52.97
2022-10-06T10:37:24.358Z,54.31
2022-10-06T10:39:59.238Z,54.00
2022-10-06T10:42:49.953Z,55.44
2022-10-06T10:45:38.001Z,54.56
2022-10-06T10:48:34.155Z,56.21
2022-10-06T10:51:07.098Z,55.63
2022-10-06T10:53:57.006Z,55.44
2022-10-06T10:56:26.433Z,56.05
2022-10-06T10:59:16.489Z,54.15
2022-10-06T11:01:53.552Z,55.27
2022-10-06T11:04:20.577Z,54.14
2022-10-06T11:07:17.835Z,53.63
2022-10-06T11:09:54.030Z,51.71
2022-10-06T11:12:42.675Z,53.16
2022-10-06T11:15:18.606Z,53.31
2022-10-06T11:17:47.367Z,53.58
2022-10-06T11:21:14.634Z,55.16
2022-10-06T11:23:50.891Z,58.49
2022-10-06T11:26:49.491Z,58.46
2022-10-06T11:29:39.429Z,55.51
2022-10-06T11:32:37.398Z,54.05
2022-10-06T11:35:19.687Z,53.23
2022-10-06T11:37:58.449Z,53.90
2022-10-06T11:40:42.259Z,55.20
2022-10-06T11:43:35.852Z,55.45
2022-10-06T11:46:31.247Z,54.42
2022-10-06T11:49:30.344Z,56.24
2022-10-06T11:52:08.188Z,54.68
2022-10-06T11:54:37.659Z,52.72
2022-10-06T11:57:30.365Z,52.49
2022-10-06T12:00:16.281Z,52.95
2022-10-06T12:02:48.635Z,54.11
2022-10-06T12:08:02.756Z,54.00
2022-10-06T12:10:29.313Z,52.66
2022-10-06T12:42:01.953Z,49.17
2022-10-06T12:44:31.592Z,49.27
2022-10-06T12:47:04.035Z,50.06
2022-10-06T12:49:40.396Z,51.44
2022-10-06T12:52:15.757Z,49.48
2022-10-06T12:54:53.661Z,50.44
2022-10-06T12:57:23.499Z,52.47
2022-10-06T12:59:50.360Z,51.75
2022-10-06T13:02:26.914Z,50.88
2022-10-06T13:05:01.698Z,51.43
2022-10-06T13:07:31.256Z,50.05
2022-10-06T13:10:16.059Z,50.48
2022-10-06T13:12:47.529Z,50.01
2022-10-06T13:15:20.650Z,50.79
2022-10-06T13:18:02.731Z,51.72
2022-10-06T13:20:35.596Z,49.32
2022-10-06T13:23:23.699Z,49.59
2022-10-06T13:26:13.218Z,48.39
2022-10-06T13:28:42.893Z,49.76
2022-10-06T13:31:15.366Z,50.36
2022-10-06T13:33:44.388Z,49.79
2022-10-06T13:36:12.498Z,49.24
2022-10-06T13:38:41.288Z,51.77
2022-10-06T13:41:14.041Z,50.73
2022-10-06T13:43:45.771Z,49.16
2022-10-06T13:46:16.898Z,48.86
2022-10-06T13:48:48.662Z,50.67
2022-10-06T13:51:22.115Z,50.03
2022-10-06T13:53:49.407Z,49.05
2022-10-06T13:58:56.220Z,48.58
2022-10-06T14:01:31.089Z,48.97
2022-10-06T14:04:14.945Z,48.84
2022-10-06T14:07:02.145Z,50.16
2022-10-06T14:09:32.925Z,51.10
2022-10-06T14:12:12.675Z,49.61
2022-10-06T14:14:39.633Z,49.83
2022-10-06T14:17:06.964Z,50.77
2022-10-06T14:19:38.905Z,50.04
2022-10-06T14:22:06.136Z,49.89
2022-10-06T14:24:37.545Z,49.30
2022-10-06T14:27:06.887Z,50.57
2022-10-06T14:29:34.377Z,51.04
2022-10-06T14:32:10.412Z,51.13
2022-10-06T14:34:37.019Z,51.33
2022-10-06T14:37:03.769Z,52.18
2022-10-06T14:39:30.499Z,50.77
2022-10-06T14:42:00.213Z,52.32
2022-10-06T14:44:26.907Z,51.14
2022-10-06T14:46:54.651Z,52.15
2022-10-06T14:49:22.152Z,52.19
2022-10-06T14:51:48.795Z,52.06
2022-10-06T14:54:15.588Z,53.67
2022-10-06T14:56:42.517Z,52.29
2022-10-06T14:59:12.575Z,52.63
2022-10-06T15:01:40.628Z,54.13
2022-10-06T15:04:13.199Z,53.93
2022-10-06T15:07:06.585Z,53.62
2022-10-06T15:09:33.257Z,53.75
2022-10-06T15:12:00.293Z,54.85
2022-10-06T15:14:28.494Z,57.01
2022-10-06T15:16:59.056Z,55.90
2022-10-06T15:19:26.276Z,56.24
2022-10-06T15:21:52.953Z,55.03
2022-10-06T15:24:20.027Z,55.28
2022-10-06T15:27:06.249Z,55.83
2022-10-06T15:29:34.858Z,56.30
2022-10-06T15:32:02.730Z,56.56
2022-10-06T15:34:32.342Z,57.71
2022-10-06T15:36:59.614Z,58.01
2022-10-06T15:39:28.918Z,59.92
2022-10-06T15:41:56.217Z,60.68
2022-10-06T15:44:23.430Z,59.08
2022-10-06T15:46:54.831Z,61.75
2022-10-06T15:49:22.650Z,61.40
2022-10-06T15:52:03.270Z,60.59
2022-10-06T15:54:33.896Z,61.82
2022-10-06T15:57:02.617Z,64.00
2022-10-06T15:59:32.832Z,61.85
2022-10-06T16:02:08.449Z,63.60
2022-10-06T16:04:39.382Z,67.11
2022-10-06T16:07:14.505Z,67.44
2022-10-06T16:09:43.988Z,69.13
2022-10-06T16:12:13.028Z,69.91
2022-10-06T16:14:39.837Z,72.44
2022-10-06T16:17:07.277Z,73.50
2022-10-06T16:19:37.048Z,75.97
2022-10-06T16:22:05.783Z,77.20
2022-10-06T16:24:33.138Z,77.81
2022-10-06T16:27:00.245Z,79.01
2022-10-06T16:29:28.268Z,81.43
2022-10-06T16:31:55.835Z,82.26
2022-10-06T16:34:23.193Z,85.91
2022-10-06T16:36:49.848Z,87.01
2022-10-06T16:39:21.617Z,88.29
2022-10-06T16:41:48.925Z,88.11
2022-10-06T16:44:15.603Z,88.40
2022-10-06T16:46:43.994Z,89.09
2022-10-06T16:49:11.145Z,91.09
2022-10-06T16:51:40.183Z,94.38
2022-10-06T16:54:12.455Z,95.73
2022-10-06T16:56:40.462Z,97.65
2022-10-06T16:59:11.767Z,96.32
2022-10-06T17:01:38.466Z,95.53
2022-10-06T17:04:17.835Z,96.24
2022-10-06T17:06:50.143Z,97.55
2022-10-06T17:09:17.640Z,97.73
2022-10-06T17:11:47.498Z,98.52
2022-10-06T17:14:14.871Z,100.00
2022-10-06T17:16:44.055Z,100.00
2022-10-06T17:19:12.528Z,100.00
2022-10-06T17:21:48.784Z,100.00
2022-10-06T17:24:18.211Z,100.00
2022-10-06T17:26:47.462Z,100.00
2022-10-06T17:29:21.216Z,100.00
2022-10-06T17:31:50.807Z,100.00
2022-10-06T17:34:21.891Z,100.00
2022-10-06T17:36:51.564Z,100.00
2022-10-06T17:39:21.536Z,100.00
2022-10-06T17:41:50.275Z,100.00
2022-10-06T17:44:22.923Z,100.00
2022-10-06T17:46:52.925Z,100.00
2022-10-06T17:49:21.593Z,100.00
2022-10-06T17:51:49.275Z,100.00
2022-10-06T17:54:19.802Z,100.00
2022-10-06T17:56:51.642Z,100.00
2022-10-06T17:59:28.604Z,100.00
2022-10-06T18:01:57.059Z,100.00
2022-10-06T18:04:24.921Z,100.00
2022-10-06T18:06:55.980Z,100.00
2022-10-06T18:09:25.829Z,100.00
2022-10-06T18:11:56.794Z,100.00
2022-10-06T18:14:28.735Z,100.00
2022-10-06T18:16:59.311Z,100.00
2022-10-06T18:19:36.003Z,100.00
2022-10-06T18:22:10.774Z,100.00
2022-10-06T18:24:44.019Z,100.00
2022-10-06T18:27:13.832Z,100.00
2022-10-06T18:29:41.364Z,100.00
2022-10-06T18:33:13.059Z,100.00
2022-10-06T18:37:43.150Z,100.00
2022-10-06T18:40:11.254Z,100.00
2022-10-06T18:42:39.297Z,100.00
2022-10-06T18:45:25.920Z,100.00
2022-10-06T18:48:11.050Z,100.00
2022-10-06T18:50:38.500Z,100.00
2022-10-06T18:53:05.820Z,100.00
2022-10-06T18:55:35.786Z,100.00
2022-10-06T18:58:14.788Z,100.00
2022-10-06T19:00:41.438Z,100.00
2022-10-06T19:03:08.114Z,100.00
2022-10-06T19:05:35.237Z,100.00
2022-10-06T19:08:01.847Z,100.00
2022-10-06T19:10:29.813Z,100.00
2022-10-06T19:12:58.324Z,100.00
2022-10-06T19:15:24.912Z,100.00
2022-10-06T19:17:51.507Z,100.00
2022-10-06T19:20:18.686Z,100.00
2022-10-06T19:22:47.567Z,100.00
2022-10-06T19:25:14.792Z,100.00
2022-10-06T19:27:41.649Z,100.00
2022-10-06T19:30:09.494Z,100.00
2022-10-06T19:32:36.287Z,100.00
2022-10-06T19:35:07.667Z,100.00
2022-10-06T19:37:35.990Z,100.00
2022-10-06T19:40:02.826Z,100.00
2022-10-06T19:42:47.731Z,100.00
2022-10-06T19:45:16.084Z,100.00
2022-10-06T19:47:43.099Z,100.00
2022-10-06T19:50:12.434Z,100.00
2022-10-06T19:52:40.477Z,100.00
2022-10-06T19:55:07.527Z,100.00
2022-10-06T19:58:16.071Z,100.00
2022-10-06T20:01:28.023Z,100.00
2022-10-06T20:08:06.847Z,100.00
2022-10-06T20:11:21.665Z,100.00
2022-10-06T20:20:24.685Z,100.00
2022-10-06T20:22:51.336Z,100.00
2022-10-06T20:25:17.955Z,100.00
2022-10-06T20:27:45.355Z,100.00
2022-10-06T20:31:29.459Z,100.00
2022-10-06T20:34:58.856Z,100.00
2022-10-06T20:41:18.682Z,100.00
2022-10-06T20:43:45.579Z,100.00
2022-10-06T20:46:12.312Z,100.00
2022-10-06T20:48:41.052Z,100.00
2022-10-06T20:51:16.476Z,100.00
2022-10-06T20:53:43.169Z,100.00
2022-10-06T20:56:40.322Z,100.00
2022-10-06T20:59:32.272Z,100.00
2022-10-06T21:08:34.674Z,100.00
2022-10-06T21:11:54.817Z,100.00
2022-10-06T21:14:21.422Z,100.00
2022-10-06T21:20:10.210Z,100.00
2022-10-06T21:22:36.744Z,100.00
2022-10-06T21:33:22.864Z,100.00
2022-10-06T21:35:59.877Z,100.00
2022-10-06T21:38:27.208Z,100.00
2022-10-06T21:40:54.608Z,100.00
2022-10-06T21:50:34.490Z,100.00
2022-10-06T21:53:01.179Z,100.00
2022-10-06T21:55:27.839Z,100.00
2022-10-06T21:57:54.421Z,100.00
2022-10-06T22:00:21.034Z,100.00
2022-10-06T22:02:47.824Z,100.00
2022-10-06T22:05:14.530Z,100.00
2022-10-06T22:07:41.579Z,100.00
2022-10-06T22:23:44.454Z,100.00
2022-10-06T22:26:12.698Z,100.00
2022-10-06T22:33:01.000Z,100.00
2022-10-06T22:35:25.504Z,100.00
2022-10-06T22:37:52.127Z,100.00
2022-10-06T22:40:18.917Z,100.00
2022-10-06T22:42:45.526Z,100.00
2022-10-06T22:45:12.520Z,100.00
2022-10-06T22:47:39.086Z,100.00
2022-10-06T22:54:45.029Z,100.00
2022-10-06T22:57:51.121Z,100.00
2022-10-06T23:00:57.581Z,100.00
2022-10-06T23:04:16.038Z,100.00
2022-10-06T23:10:53.499Z,100.00
2022-10-06T23:13:21.186Z,100.00
2022-10-06T23:15:47.997Z,100.00
2022-10-06T23:18:14.853Z,100.00
2022-10-06T23:20:41.547Z,100.00
2022-10-06T23:23:08.180Z,100.00
2022-10-06T23:25:38.539Z,100.00
2022-10-06T23:28:05.419Z,100.00
2022-10-06T23:30:34.974Z,100.00
2022-10-06T23:33:02.119Z,100.00
2022-10-06T23:35:28.861Z,100.00
2022-10-06T23:37:55.459Z,100.00
2022-10-06T23:40:22.110Z,100.00
2022-10-06T23:42:48.701Z,100.00
2022-10-06T23:45:15.322Z,100.00
2022-10-06T23:47:42.209Z,100.00
2022-10-06T23:50:09.331Z,100.00
2022-10-06T23:52:36.001Z,100.00
2022-10-06T23:55:02.592Z,100.00
2022-10-06T23:57:29.171Z,100.00
2022-10-06T23:59:55.762Z,100.00
